Terminal Aerodrome Forecast
Issued by NWS Binghamton, NY

Home | Current Version | Previous Version | Text Only | Print | Product List | Glossary On
Versions: 1 2 3 4 5 6 7 8 9 10 11 12 13 14 15 16 17 18 19 20 21 22 23 24 25 26 27 28 29 30 31 32 33
000
FTUS41 KBGM 182300
TAFBGM
TAF
KBGM 182327Z 1900/1924 30007KT 4SM BR OVC008
      TEMPO 1900/1904 2SM -FZDZSN BR OVC002
     FM190400 30005KT 2SM -FZDZSN BR OVC002
     FM191500 30007KT 5SM BR OVC012=

USA.gov is the U.S. government's official web portal to all federal, state and local government web resources and services.